createdAt,value
2018-05-21T00:00:17.222Z,16.03
2018-05-21T00:01:17.250Z,16.04
2018-05-21T00:02:17.107Z,16.07
2018-05-21T00:03:17.047Z,16.03
2018-05-21T00:04:16.905Z,15.95
2018-05-21T00:05:16.962Z,16.06
2018-05-21T00:06:16.745Z,15.99
2018-05-21T00:07:16.811Z,16.06
2018-05-21T00:08:16.592Z,15.98
2018-05-21T00:09:16.572Z,15.98
2018-05-21T00:10:16.448Z,16.01
2018-05-21T00:11:16.390Z,15.89
2018-05-21T00:12:16.398Z,15.91
2018-05-21T00:13:16.294Z,15.98
2018-05-21T00:14:16.115Z,16.01
2018-05-21T00:15:16.102Z,15.98
2018-05-21T00:16:15.970Z,15.96
2018-05-21T00:17:15.940Z,16.08
2018-05-21T00:18:15.814Z,16.13
2018-05-21T00:19:15.853Z,16.04
2018-05-21T00:20:15.648Z,16.04
2018-05-21T00:21:15.631Z,16.11
2018-05-21T00:22:15.505Z,16.13
2018-05-21T00:23:15.476Z,16.07
2018-05-21T00:24:15.368Z,16.17
2018-05-21T00:25:15.366Z,16.18
2018-05-21T00:26:15.221Z,16.11
2018-05-21T00:27:15.163Z,16.03
2018-05-21T00:28:15.043Z,15.99
2018-05-21T00:29:15.074Z,16.04
2018-05-21T00:30:14.886Z,16.06
2018-05-21T00:31:14.878Z,16.03
2018-05-21T00:32:14.709Z,15.96
2018-05-21T00:33:14.725Z,15.99
2018-05-21T00:34:14.560Z,15.86
2018-05-21T00:35:14.618Z,15.89
2018-05-21T00:36:14.393Z,15.86
2018-05-21T00:37:14.408Z,15.81
2018-05-21T00:38:14.246Z,15.80
2018-05-21T00:39:14.244Z,15.78
2018-05-21T00:40:14.080Z,15.70
2018-05-21T00:41:14.127Z,15.74
2018-05-21T00:42:13.932Z,15.66
2018-05-21T00:43:13.941Z,15.56
2018-05-21T00:44:13.803Z,15.56
2018-05-21T00:45:13.743Z,15.56
2018-05-21T00:46:13.622Z,15.68
2018-05-21T00:47:13.655Z,15.52
2018-05-21T00:48:13.451Z,15.60
2018-05-21T00:49:14.519Z,15.52
2018-05-21T00:50:13.290Z,15.52
2018-05-21T00:51:13.274Z,15.60
2018-05-21T00:52:13.131Z,15.66
2018-05-21T00:53:13.178Z,15.64
2018-05-21T00:54:12.987Z,15.68
2018-05-21T00:55:13.025Z,15.68
2018-05-21T00:56:12.821Z,15.67
2018-05-21T00:57:12.806Z,15.58
2018-05-21T00:58:12.665Z,15.58
2018-05-21T00:59:12.727Z,15.59
2018-05-21T01:00:12.523Z,15.59
2018-05-21T01:01:12.521Z,15.60
2018-05-21T01:02:12.347Z,15.49
2018-05-21T01:04:54.516Z,15.48
2018-05-21T01:05:54.466Z,15.38
2018-05-21T01:06:54.327Z,15.51
2018-05-21T01:09:36.478Z,15.40
2018-05-21T01:10:36.437Z,15.37
2018-05-21T01:11:36.342Z,15.38
2018-05-21T01:14:18.475Z,15.33
2018-05-21T01:15:18.447Z,15.43
2018-05-21T01:16:18.345Z,15.38
2018-05-21T01:19:00.473Z,15.37
2018-05-21T01:20:21.396Z,15.38
2018-05-21T01:21:01.472Z,15.40
2018-05-21T01:22:00.236Z,15.35
2018-05-21T01:23:00.269Z,15.33
2018-05-21T01:24:00.087Z,15.43
2018-05-21T01:25:00.079Z,15.38
2018-05-21T01:25:59.957Z,15.30
2018-05-21T01:26:59.897Z,15.23
2018-05-21T01:27:59.765Z,15.28
2018-05-21T01:28:59.794Z,15.28
2018-05-21T01:29:59.614Z,15.30
2018-05-21T01:30:59.649Z,15.27
2018-05-21T01:31:59.455Z,15.20
2018-05-21T01:32:59.419Z,15.15
2018-05-21T01:33:59.301Z,15.15
2018-05-21T01:36:41.506Z,15.04
2018-05-21T01:37:41.536Z,15.07
2018-05-21T01:38:41.332Z,15.15
2018-05-21T01:39:41.342Z,15.05
2018-05-21T01:40:41.170Z,15.05
2018-05-21T01:41:41.180Z,15.07
2018-05-21T01:42:41.013Z,15.04
2018-05-21T01:45:22.989Z,15.09
2018-05-21T01:46:22.979Z,15.04
2018-05-21T01:47:22.877Z,15.11
2018-05-21T01:48:22.866Z,15.00
2018-05-21T01:49:22.668Z,15.00
2018-05-21T01:50:22.675Z,14.97
2018-05-21T01:51:22.514Z,14.93
2018-05-21T01:52:22.516Z,14.95
2018-05-21T01:53:22.352Z,14.95
2018-05-21T01:54:22.389Z,14.98
2018-05-21T01:55:22.276Z,14.93
2018-05-21T01:56:22.202Z,14.93
2018-05-21T01:57:22.051Z,14.94
2018-05-21T01:58:22.005Z,14.91
2018-05-21T01:59:22.108Z,14.94
2018-05-21T02:00:21.916Z,14.87
2018-05-21T02:01:21.721Z,14.86
2018-05-21T02:02:21.770Z,14.74
2018-05-21T02:03:21.563Z,14.75
2018-05-21T02:04:21.533Z,14.71
2018-05-21T02:05:21.405Z,14.64
2018-05-21T02:06:21.447Z,14.67
2018-05-21T02:07:21.274Z,14.71
2018-05-21T02:08:21.352Z,14.69
2018-05-21T02:09:21.101Z,14.66
2018-05-21T02:10:21.058Z,14.66
2018-05-21T02:11:20.936Z,14.66
2018-05-21T02:12:20.971Z,14.66
2018-05-21T02:13:20.785Z,14.67
2018-05-21T02:14:20.782Z,14.69
2018-05-21T02:15:20.629Z,14.57
2018-05-21T02:16:20.585Z,14.66
2018-05-21T02:17:20.481Z,14.63
2018-05-21T02:18:20.502Z,14.67
2018-05-21T02:19:20.294Z,14.67
2018-05-21T02:22:02.508Z,14.46
2018-05-21T02:23:02.540Z,14.49
2018-05-21T02:24:02.340Z,14.52
2018-05-21T02:25:02.316Z,14.46
2018-05-21T02:26:02.175Z,14.53
2018-05-21T02:27:02.194Z,14.46
2018-05-21T02:28:02.053Z,14.45
2018-05-21T02:29:02.039Z,14.49
2018-05-21T02:30:01.860Z,14.44
2018-05-21T02:31:01.853Z,14.48
2018-05-21T02:32:01.716Z,14.52
2018-05-21T02:33:01.685Z,14.42
2018-05-21T02:34:01.552Z,14.48
2018-05-21T02:35:01.569Z,14.48
2018-05-21T02:36:01.389Z,14.39
2018-05-21T02:37:01.378Z,14.45
2018-05-21T02:38:01.261Z,14.42
2018-05-21T02:40:43.496Z,14.29
2018-05-21T02:41:43.424Z,14.24
2018-05-21T02:42:43.332Z,14.13
2018-05-21T02:43:43.338Z,14.16
2018-05-21T02:44:43.181Z,14.12
2018-05-21T02:45:43.206Z,14.17
2018-05-21T02:46:43.023Z,14.16
2018-05-21T02:47:43.014Z,14.13
2018-05-21T02:48:42.887Z,14.16
2018-05-21T02:49:42.827Z,14.09
2018-05-21T02:50:42.707Z,14.08
2018-05-21T02:51:42.763Z,14.13
2018-05-21T02:52:42.560Z,14.12
2018-05-21T02:53:42.571Z,14.12
2018-05-21T02:54:42.388Z,14.09
2018-05-21T02:55:42.356Z,14.09
2018-05-21T02:56:42.232Z,14.11
2018-05-21T02:57:42.263Z,13.99
2018-05-21T02:58:42.092Z,14.06
2018-05-21T02:59:42.114Z,14.04
2018-05-21T03:00:41.922Z,14.09
2018-05-21T03:01:41.882Z,14.02
2018-05-21T03:02:41.757Z,14.12
2018-05-21T03:03:41.803Z,13.96
2018-05-21T03:04:41.618Z,14.11
2018-05-21T03:05:41.600Z,14.05
2018-05-21T03:06:41.444Z,14.05
2018-05-21T03:07:41.419Z,13.98
2018-05-21T03:08:41.288Z,13.94
2018-05-21T03:09:41.267Z,13.94
2018-05-21T03:10:41.122Z,14.01
2018-05-21T03:11:41.129Z,13.94
2018-05-21T03:12:40.971Z,14.05
2018-05-21T03:13:40.937Z,13.96
2018-05-21T03:14:40.840Z,14.06
2018-05-21T03:15:40.845Z,13.94
2018-05-21T03:16:40.652Z,13.91
2018-05-21T03:17:40.655Z,13.93
2018-05-21T03:18:40.488Z,14.02
2018-05-21T03:19:40.467Z,13.94
2018-05-21T03:20:40.359Z,13.99
2018-05-21T03:21:40.380Z,13.93
2018-05-21T03:22:40.179Z,13.99
2018-05-21T03:23:40.183Z,13.93
2018-05-21T03:24:40.058Z,13.83
2018-05-21T03:25:39.985Z,13.75
2018-05-21T03:26:39.854Z,13.73
2018-05-21T03:27:39.911Z,13.79
2018-05-21T03:28:39.700Z,13.75
2018-05-21T03:29:39.750Z,13.73
2018-05-21T03:30:39.559Z,13.86
2018-05-21T03:31:39.524Z,13.83
2018-05-21T03:32:39.379Z,13.81
2018-05-21T03:35:21.521Z,13.90
2018-05-21T03:36:21.564Z,13.93
2018-05-21T03:37:21.344Z,13.94
2018-05-21T03:38:21.277Z,13.99
2018-05-21T03:39:21.196Z,14.01
2018-05-21T03:42:03.036Z,14.06
2018-05-21T03:43:03.045Z,14.04
2018-05-21T03:44:02.854Z,14.04
2018-05-21T03:45:02.850Z,14.16
2018-05-21T03:46:02.723Z,14.19
2018-05-21T03:47:02.663Z,14.11
2018-05-21T03:48:02.533Z,14.11
2018-05-21T03:49:02.578Z,14.17
2018-05-21T03:50:02.375Z,14.19
2018-05-21T03:51:02.412Z,14.12
2018-05-21T03:52:02.216Z,14.19
2018-05-21T03:53:02.193Z,14.19
2018-05-21T03:54:02.070Z,14.17
2018-05-21T03:55:02.098Z,14.21
2018-05-21T03:56:01.908Z,14.12
2018-05-21T03:57:01.977Z,14.16
2018-05-21T04:10:25.067Z,14.23
2018-05-21T04:11:24.853Z,14.23
2018-05-21T04:12:24.865Z,14.27
2018-05-21T04:13:24.696Z,14.41
2018-05-21T04:14:24.663Z,14.31
2018-05-21T04:15:24.563Z,14.35
2018-05-21T04:18:06.556Z,14.27
2018-05-21T04:19:06.559Z,14.26
2018-05-21T04:20:06.366Z,14.38
2018-05-21T04:21:06.363Z,14.39
2018-05-21T04:22:06.204Z,14.42
2018-05-21T04:23:06.199Z,14.41
2018-05-21T04:24:06.041Z,14.46
2018-05-21T04:25:06.086Z,14.49
2018-05-21T04:26:05.888Z,14.57
2018-05-21T04:27:05.896Z,14.59
2018-05-21T04:28:05.747Z,14.67
2018-05-21T04:29:05.701Z,14.66
2018-05-21T04:30:05.569Z,14.69
2018-05-21T04:31:05.617Z,14.71
2018-05-21T04:32:05.421Z,14.75
2018-05-21T04:33:05.456Z,14.80
2018-05-21T04:34:05.260Z,14.94
2018-05-21T04:35:05.242Z,15.05
2018-05-21T04:36:05.098Z,15.15
2018-05-21T04:37:05.156Z,15.22
2018-05-21T04:38:05.067Z,15.22
2018-05-21T04:39:04.985Z,15.28
2018-05-21T04:40:04.780Z,15.25
2018-05-21T04:41:04.758Z,15.34
2018-05-21T04:42:04.632Z,15.35
2018-05-21T04:43:04.665Z,15.22
2018-05-21T04:44:04.498Z,15.38
2018-05-21T04:45:04.482Z,15.38
2018-05-21T04:46:04.307Z,15.40
2018-05-21T04:47:04.292Z,15.40
2018-05-21T04:48:04.148Z,15.37
2018-05-21T04:49:04.233Z,15.52
2018-05-21T04:50:03.990Z,15.55
2018-05-21T04:51:04.003Z,15.60
2018-05-21T04:52:03.835Z,15.71
2018-05-21T04:53:03.814Z,15.68
2018-05-21T04:54:03.678Z,15.76
2018-05-21T04:55:03.653Z,15.76
2018-05-21T04:56:03.516Z,15.77
2018-05-21T04:58:45.532Z,15.78
2018-05-21T04:59:45.559Z,15.89
2018-05-21T05:00:45.370Z,16.03
2018-05-21T05:01:45.334Z,15.99
2018-05-21T05:02:45.211Z,16.14
2018-05-21T05:03:45.244Z,16.22
2018-05-21T05:04:45.076Z,16.32
2018-05-21T05:05:45.053Z,16.22
2018-05-21T05:06:44.897Z,16.26
2018-05-21T05:07:44.860Z,16.22
2018-05-21T05:08:44.739Z,16.18
2018-05-21T05:11:09.562Z,16.17
2018-05-21T05:12:09.463Z,16.14
2018-05-21T05:13:09.450Z,16.06
2018-05-21T05:14:09.297Z,15.96
2018-05-21T05:15:09.307Z,16.04
2018-05-21T05:16:09.149Z,16.07
2018-05-21T05:17:09.087Z,16.16
2018-05-21T05:18:08.986Z,16.25
2018-05-21T05:19:09.010Z,16.22
2018-05-21T05:22:49.099Z,16.26
2018-05-21T05:23:48.966Z,16.27
2018-05-21T05:24:48.975Z,16.33
2018-05-21T05:25:48.835Z,16.37
2018-05-21T05:26:48.855Z,16.47
2018-05-21T05:27:48.637Z,16.48
2018-05-21T05:28:48.703Z,16.48
2018-05-21T05:29:48.486Z,16.59
2018-05-21T05:30:48.527Z,16.57
2018-05-21T05:31:48.332Z,16.57
2018-05-21T05:32:48.308Z,16.60
2018-05-21T05:33:48.172Z,16.72
2018-05-21T05:34:48.217Z,16.59
2018-05-21T05:35:48.032Z,16.65
2018-05-21T05:36:48.056Z,16.55
2018-05-21T05:37:47.867Z,16.67
2018-05-21T05:38:47.838Z,16.72
2018-05-21T05:39:47.702Z,16.67
2018-05-21T05:40:47.691Z,16.67
2018-05-21T05:41:47.570Z,16.60
2018-05-21T05:44:29.541Z,16.66
2018-05-21T05:45:29.547Z,16.70
2018-05-21T05:46:29.403Z,16.62
2018-05-21T05:50:44.551Z,16.60
2018-05-21T05:52:06.627Z,16.51
2018-05-21T05:52:44.448Z,16.51
2018-05-21T05:53:44.315Z,16.63
2018-05-21T05:54:44.356Z,16.63
2018-05-21T05:55:44.153Z,16.75
2018-05-21T05:56:44.101Z,16.82
2018-05-21T05:57:44.008Z,16.88
2018-05-21T05:58:43.928Z,16.88
2018-05-21T05:59:43.839Z,16.95
2018-05-21T06:00:43.774Z,17.09
2018-05-21T06:01:43.682Z,17.00
2018-05-21T06:02:44.628Z,17.12
2018-05-21T06:03:43.521Z,17.10
2018-05-21T06:04:43.463Z,17.10
2018-05-21T06:05:43.367Z,17.17
2018-05-21T06:06:43.290Z,17.20
2018-05-21T06:07:43.234Z,17.32
2018-05-21T06:08:43.141Z,17.43
2018-05-21T06:09:43.055Z,17.49
2018-05-21T06:10:42.980Z,17.65
2018-05-21T06:11:42.898Z,17.60
2018-05-21T06:12:42.984Z,17.66
2018-05-21T06:13:42.757Z,17.70
2018-05-21T06:16:25.047Z,17.94
2018-05-21T06:17:24.989Z,18.42
2018-05-21T06:18:24.914Z,18.62
2018-05-21T06:19:24.835Z,19.23
2018-05-21T06:20:24.734Z,19.43
2018-05-21T06:21:24.673Z,19.80
2018-05-21T06:22:24.582Z,19.87
2018-05-21T06:23:24.534Z,19.89
2018-05-21T06:24:24.433Z,19.60
2018-05-21T06:25:24.352Z,19.62
2018-05-21T06:26:24.277Z,19.65
2018-05-21T06:27:24.208Z,19.61
2018-05-21T06:28:24.142Z,19.57
2018-05-21T06:29:24.062Z,19.61
2018-05-21T06:30:23.959Z,19.72
2018-05-21T06:31:23.890Z,19.72
2018-05-21T06:32:23.819Z,19.64
2018-05-21T06:33:23.759Z,19.47
2018-05-21T06:34:23.688Z,19.45
2018-05-21T06:35:23.576Z,19.34
2018-05-21T06:36:23.496Z,19.17
2018-05-21T06:37:23.437Z,19.01
2018-05-21T06:38:23.339Z,19.06
2018-05-21T06:39:23.288Z,19.10
2018-05-21T06:40:23.193Z,19.09
2018-05-21T06:43:05.056Z,19.53
2018-05-21T06:44:06.012Z,19.72
2018-05-21T06:45:04.908Z,19.83
2018-05-21T06:46:04.927Z,20.31
2018-05-21T06:47:04.759Z,20.56
2018-05-21T06:48:04.683Z,20.66
2018-05-21T06:49:04.616Z,20.97
2018-05-21T06:50:04.525Z,20.88
2018-05-21T06:51:04.449Z,20.93
2018-05-21T06:52:04.372Z,21.01
2018-05-21T06:53:04.300Z,21.00
2018-05-21T06:54:04.236Z,20.68
2018-05-21T06:55:04.281Z,20.58
2018-05-21T06:56:04.079Z,20.46
2018-05-21T06:57:03.983Z,20.44
2018-05-21T06:58:03.928Z,20.51
2018-05-21T07:11:28.070Z,25.91
2018-05-21T07:12:26.972Z,25.29
2018-05-21T07:13:26.923Z,25.09
2018-05-21T07:14:26.827Z,24.90
2018-05-21T07:15:27.777Z,24.75
2018-05-21T07:16:26.679Z,24.18
2018-05-21T07:17:26.618Z,24.02
2018-05-21T07:18:26.541Z,23.90
2018-05-21T07:19:26.474Z,23.79
2018-05-21T07:20:26.440Z,23.75
2018-05-21T07:21:26.332Z,23.75
2018-05-21T07:22:26.241Z,23.74
2018-05-21T07:23:26.203Z,23.59
2018-05-21T07:24:26.147Z,23.77
2018-05-21T07:25:26.082Z,23.97
2018-05-21T07:26:25.982Z,24.30
2018-05-21T07:27:25.892Z,24.44
2018-05-21T07:28:25.828Z,24.52
2018-05-21T07:29:25.746Z,24.79
2018-05-21T07:30:25.690Z,25.20
2018-05-21T07:31:25.671Z,25.74
2018-05-21T07:32:25.519Z,25.29
2018-05-21T07:33:25.465Z,25.22
2018-05-21T07:34:25.402Z,25.35
2018-05-21T07:35:25.315Z,25.35
2018-05-21T07:36:25.241Z,25.74
2018-05-21T07:37:25.181Z,26.00
2018-05-21T07:38:25.084Z,25.91
2018-05-21T07:39:25.027Z,25.72
2018-05-21T07:40:24.948Z,25.60
2018-05-21T07:41:24.891Z,25.53
2018-05-21T07:42:24.831Z,25.53
2018-05-21T07:43:24.727Z,25.57
2018-05-21T07:44:24.649Z,25.61
2018-05-21T07:45:24.591Z,25.83
2018-05-21T07:46:24.529Z,25.98
2018-05-21T07:47:24.461Z,26.19
2018-05-21T07:48:24.365Z,26.54
2018-05-21T07:49:24.310Z,26.84
2018-05-21T07:50:24.235Z,27.05
2018-05-21T07:51:24.197Z,26.81
2018-05-21T07:52:24.094Z,26.08
2018-05-21T07:53:24.016Z,26.16
2018-05-21T07:54:23.936Z,26.98
2018-05-21T07:55:23.897Z,27.90
2018-05-21T07:56:23.791Z,28.46
2018-05-21T07:57:23.747Z,29.07
2018-05-21T07:58:23.664Z,29.64
2018-05-21T07:59:23.620Z,29.67
2018-05-21T08:00:23.514Z,29.99
2018-05-21T08:03:05.605Z,30.11
2018-05-21T08:04:05.545Z,30.38
2018-05-21T08:05:05.456Z,30.42
2018-05-21T08:06:05.392Z,30.40
2018-05-21T08:07:05.344Z,30.21
2018-05-21T08:08:05.261Z,30.21
2018-05-21T08:09:05.182Z,29.55
2018-05-21T08:10:05.125Z,29.81
2018-05-21T08:11:05.042Z,29.95
2018-05-21T08:12:04.997Z,30.49
2018-05-21T08:13:04.914Z,30.42
2018-05-21T08:14:04.867Z,30.51
2018-05-21T08:15:04.777Z,30.61
2018-05-21T08:17:47.148Z,29.20
2018-05-21T08:18:47.041Z,27.71
2018-05-21T08:19:46.968Z,28.23
2018-05-21T08:20:46.907Z,28.89
2018-05-21T08:21:46.831Z,28.94
2018-05-21T08:22:46.789Z,29.07
2018-05-21T08:23:46.697Z,29.74
2018-05-21T08:26:28.612Z,30.21
2018-05-21T08:27:28.557Z,30.45
2018-05-21T08:28:28.489Z,30.42
2018-05-21T08:29:28.417Z,30.48
2018-05-21T08:30:28.343Z,30.79
2018-05-21T08:31:28.279Z,30.75
2018-05-21T08:32:28.213Z,30.22
2018-05-21T08:33:28.164Z,29.37
2018-05-21T08:34:28.068Z,30.00
2018-05-21T08:35:28.022Z,30.21
2018-05-21T08:36:27.948Z,30.38
2018-05-21T08:37:27.884Z,29.25
2018-05-21T08:38:27.852Z,28.70
2018-05-21T08:39:27.831Z,28.27
2018-05-21T08:40:27.698Z,28.74
2018-05-21T08:41:27.649Z,29.79
2018-05-21T08:42:27.546Z,30.21
2018-05-21T08:43:27.556Z,30.13
2018-05-21T08:44:27.512Z,28.64
2018-05-21T08:45:27.474Z,28.30
2018-05-21T08:46:27.391Z,28.87
2018-05-21T08:47:27.363Z,29.69
2018-05-21T08:48:27.224Z,30.07
2018-05-21T08:49:27.213Z,30.53
2018-05-21T08:50:27.046Z,29.36
2018-05-21T08:51:26.998Z,29.58
2018-05-21T08:52:26.939Z,29.86
2018-05-21T08:53:26.906Z,29.73
2018-05-21T08:54:26.778Z,29.45
2018-05-21T08:55:26.824Z,28.72
2018-05-21T08:56:26.665Z,29.66
2018-05-21T08:57:26.621Z,30.42
2018-05-21T08:58:26.514Z,30.54
2018-05-21T08:59:26.460Z,30.66
2018-05-21T09:00:26.398Z,29.76
2018-05-21T09:01:26.346Z,29.52
2018-05-21T09:02:26.246Z,30.07
2018-05-21T09:03:26.191Z,29.95
2018-05-21T09:04:26.139Z,30.59
2018-05-21T09:05:26.078Z,29.00
2018-05-21T09:06:25.992Z,28.61
2018-05-21T09:07:25.953Z,29.70
2018-05-21T09:08:25.866Z,29.25
2018-05-21T09:09:25.917Z,28.50
2018-05-21T09:10:25.730Z,29.17
2018-05-21T09:11:25.793Z,30.29
2018-05-21T09:12:25.631Z,30.16
2018-05-21T09:13:25.608Z,30.10
2018-05-21T09:14:25.500Z,30.30
2018-05-21T09:15:25.515Z,30.40
2018-05-21T09:16:25.464Z,30.42
2018-05-21T09:17:25.324Z,31.46
2018-05-21T09:18:25.216Z,31.00
2018-05-21T09:19:25.267Z,29.97
2018-05-21T09:20:25.097Z,29.25
2018-05-21T09:21:25.083Z,29.58
2018-05-21T09:22:24.961Z,30.10
2018-05-21T09:23:24.953Z,29.81
2018-05-21T09:24:24.826Z,29.36
2018-05-21T09:25:24.898Z,28.33
2018-05-21T09:26:24.703Z,28.24
2018-05-21T09:27:24.642Z,29.03
2018-05-21T09:28:24.577Z,29.23
2018-05-21T09:29:24.585Z,29.03
2018-05-21T09:30:24.499Z,29.21
2018-05-21T09:31:24.582Z,29.12
2018-05-21T09:32:24.359Z,29.66
2018-05-21T09:33:24.305Z,29.79
2018-05-21T09:34:24.188Z,29.69
2018-05-21T09:35:24.212Z,27.53
2018-05-21T09:36:24.083Z,27.43
2018-05-21T09:37:24.030Z,27.61
2018-05-21T09:38:23.933Z,28.24
2018-05-21T09:39:23.928Z,28.09
2018-05-21T09:40:23.802Z,28.92
2018-05-21T09:41:23.877Z,29.14
2018-05-21T09:42:23.670Z,28.82
2018-05-21T09:43:23.665Z,29.36
2018-05-21T09:44:23.543Z,29.60
2018-05-21T09:45:23.563Z,28.09
2018-05-21T09:46:23.420Z,27.74
2018-05-21T09:47:23.373Z,27.86
2018-05-21T09:48:23.273Z,28.62
2018-05-21T09:49:23.293Z,29.33
2018-05-21T09:50:23.136Z,29.64
2018-05-21T09:51:23.117Z,29.60
2018-05-21T09:52:23.004Z,29.48
2018-05-21T09:53:23.000Z,28.97
2018-05-21T09:54:22.876Z,28.97
2018-05-21T09:55:22.923Z,27.49
2018-05-21T09:56:22.757Z,27.35
2018-05-21T09:57:22.721Z,27.91
2018-05-21T09:58:22.626Z,28.21
2018-05-21T09:59:22.634Z,27.39
2018-05-21T10:00:22.484Z,27.62
2018-05-21T10:01:22.464Z,27.98
2018-05-21T10:02:22.370Z,28.62
2018-05-21T10:03:22.361Z,28.51
2018-05-21T10:04:22.238Z,28.35
2018-05-21T10:05:22.256Z,28.55
2018-05-21T10:06:22.100Z,28.94
2018-05-21T10:07:22.091Z,28.40
2018-05-21T10:08:21.962Z,28.73
2018-05-21T10:09:21.979Z,28.50
2018-05-21T10:10:21.823Z,28.85
2018-05-21T10:11:21.781Z,28.64
2018-05-21T10:12:21.733Z,28.65
2018-05-21T10:13:21.698Z,29.17
2018-05-21T10:14:21.566Z,27.63
2018-05-21T10:15:21.606Z,28.25
2018-05-21T10:16:21.443Z,28.54
2018-05-21T10:17:21.471Z,28.33
2018-05-21T10:18:21.312Z,28.15
2018-05-21T10:19:21.371Z,29.02
2018-05-21T10:20:21.172Z,29.91
2018-05-21T10:21:21.240Z,29.12
2018-05-21T10:22:21.079Z,28.88
2018-05-21T10:23:21.050Z,28.94
2018-05-21T10:24:20.957Z,29.15
2018-05-21T10:25:20.967Z,29.76
2018-05-21T10:26:20.779Z,30.08
2018-05-21T10:27:20.821Z,30.91
2018-05-21T10:28:20.672Z,30.60
2018-05-21T10:29:20.680Z,30.63
2018-05-21T10:30:20.531Z,30.60
2018-05-21T10:31:20.494Z,30.25
2018-05-21T10:32:20.388Z,30.60
2018-05-21T10:33:20.360Z,30.32
2018-05-21T10:34:20.261Z,30.22
2018-05-21T10:35:20.316Z,30.21
2018-05-21T10:36:20.223Z,29.74
2018-05-21T10:37:20.233Z,30.19
2018-05-21T10:38:20.016Z,29.14
2018-05-21T10:39:20.081Z,28.89
2018-05-21T10:40:19.894Z,28.94
2018-05-21T10:41:19.948Z,27.93
2018-05-21T10:42:19.751Z,28.50
2018-05-21T10:43:19.731Z,29.62
2018-05-21T10:44:19.624Z,30.60
2018-05-21T10:45:19.566Z,31.13
2018-05-21T10:46:19.495Z,31.65
2018-05-21T10:47:19.432Z,32.28
2018-05-21T10:48:19.378Z,31.91
2018-05-21T10:49:19.301Z,31.42
2018-05-21T10:50:19.228Z,30.75
2018-05-21T10:51:19.228Z,30.53
2018-05-21T10:52:19.106Z,30.46
2018-05-21T10:53:20.078Z,30.76
2018-05-21T10:54:19.002Z,30.42
2018-05-21T10:57:01.158Z,29.52
2018-05-21T10:59:43.191Z,28.72
2018-05-21T11:02:25.154Z,29.14
2018-05-21T11:05:07.193Z,28.03
2018-05-21T11:09:03.194Z,27.95
2018-05-21T11:10:03.103Z,28.08
2018-05-21T11:11:03.049Z,27.91
2018-05-21T11:28:04.935Z,28.88
2018-05-21T11:29:04.858Z,28.32
2018-05-21T11:31:46.703Z,28.45
2018-05-21T11:34:28.686Z,28.65
2018-05-21T11:35:29.639Z,28.94
2018-05-21T11:36:28.540Z,28.95
2018-05-21T11:39:10.679Z,28.30
2018-05-21T11:40:10.613Z,28.25
2018-05-21T11:41:10.562Z,28.54
2018-05-21T11:43:52.670Z,29.02
2018-05-21T11:44:52.612Z,28.25
2018-05-21T11:45:52.572Z,28.95
2018-05-21T12:13:33.733Z,27.20
2018-05-21T12:14:33.647Z,26.91
2018-05-21T12:15:33.542Z,26.96
2018-05-21T12:18:15.713Z,26.94
2018-05-21T12:19:15.620Z,27.02
2018-05-21T12:20:15.554Z,27.16
2018-05-21T12:21:15.469Z,26.81
2018-05-21T12:22:15.463Z,26.79
2018-05-21T12:23:16.364Z,26.78
2018-05-21T12:24:15.253Z,26.98
2018-05-21T12:25:15.191Z,27.35
2018-05-21T12:26:15.127Z,27.66
2018-05-21T12:27:15.047Z,27.95
2018-05-21T12:28:14.976Z,27.87
2018-05-21T12:29:15.937Z,27.88
2018-05-21T12:30:14.828Z,28.01
2018-05-21T12:31:14.758Z,27.91
2018-05-21T12:32:14.680Z,28.01
2018-05-21T12:33:14.612Z,27.99
2018-05-21T12:34:14.553Z,27.65
2018-05-21T12:35:14.478Z,27.62
2018-05-21T12:36:14.390Z,27.81
2018-05-21T12:37:14.327Z,27.71
2018-05-21T12:38:14.358Z,27.46
2018-05-21T12:40:56.456Z,27.13
2018-05-21T12:41:56.375Z,27.09
2018-05-21T12:46:37.375Z,26.56
2018-05-21T12:47:37.286Z,26.66
2018-05-21T12:50:19.215Z,26.81
2018-05-21T12:51:19.152Z,27.02
2018-05-21T12:52:19.059Z,26.98
2018-05-21T12:53:18.991Z,26.71
2018-05-21T12:54:18.906Z,26.47
2018-05-21T12:55:18.875Z,26.42
2018-05-21T12:56:18.782Z,26.29
2018-05-21T12:57:18.708Z,26.20
2018-05-21T12:58:18.628Z,26.38
2018-05-21T12:59:18.564Z,26.57
2018-05-21T13:00:18.504Z,26.75
2018-05-21T13:03:00.702Z,27.02
2018-05-21T13:04:00.633Z,27.28
2018-05-21T13:05:00.576Z,27.18
2018-05-21T13:06:00.497Z,26.96
2018-05-21T13:07:00.411Z,26.73
2018-05-21T13:08:00.353Z,26.69
2018-05-21T13:09:00.272Z,26.66
2018-05-21T13:10:01.219Z,26.81
2018-05-21T13:11:00.133Z,26.88
2018-05-21T13:12:00.138Z,26.73
2018-05-21T13:12:59.983Z,26.71
2018-05-21T13:13:59.924Z,26.73
2018-05-21T13:14:59.827Z,26.81
2018-05-21T13:15:59.762Z,26.83
2018-05-21T13:16:59.706Z,26.87
2018-05-21T13:19:41.711Z,27.03
2018-05-21T13:20:42.657Z,26.84
2018-05-21T13:21:41.580Z,26.73
2018-05-21T13:22:41.520Z,26.75
2018-05-21T13:23:41.477Z,26.78
2018-05-21T13:24:41.355Z,26.87
2018-05-21T13:25:41.266Z,26.76
2018-05-21T13:26:41.229Z,26.73
2018-05-21T13:27:41.128Z,26.90
2018-05-21T13:28:41.063Z,27.11
2018-05-21T13:29:40.982Z,27.20
2018-05-21T13:32:23.276Z,26.81
2018-05-21T13:33:23.258Z,26.72
2018-05-21T13:34:23.077Z,26.65
2018-05-21T13:35:23.001Z,26.66
2018-05-21T13:36:22.931Z,26.64
2018-05-21T13:37:22.906Z,26.71
2018-05-21T13:38:22.774Z,26.81
2018-05-21T13:39:22.713Z,26.71
2018-05-21T13:40:22.639Z,26.78
2018-05-21T13:41:22.559Z,26.88
2018-05-21T13:42:22.519Z,26.71
2018-05-21T13:43:22.424Z,26.53
2018-05-21T13:44:22.342Z,26.72
2018-05-21T13:45:22.277Z,26.69
2018-05-21T13:46:22.196Z,26.51
2018-05-21T13:47:22.161Z,26.57
2018-05-21T13:48:22.045Z,26.66
2018-05-21T13:49:21.982Z,26.71
2018-05-21T13:50:21.898Z,26.75
2018-05-21T13:53:04.244Z,26.61
2018-05-21T13:54:04.153Z,26.64
2018-05-21T13:55:04.108Z,26.66
2018-05-21T13:57:46.294Z,26.73
2018-05-21T14:00:28.235Z,26.97
2018-05-21T14:01:28.175Z,27.01
2018-05-21T14:02:28.080Z,27.13
2018-05-21T14:03:28.072Z,27.13
2018-05-21T14:04:27.936Z,27.18
2018-05-21T14:05:27.867Z,27.27
2018-05-21T14:06:27.795Z,27.23
2018-05-21T14:07:27.715Z,27.20
2018-05-21T14:08:27.667Z,27.33
2018-05-21T14:09:27.690Z,27.49
2018-05-21T14:10:27.492Z,27.35
2018-05-21T14:11:27.465Z,27.31
2018-05-21T14:12:27.361Z,27.28
2018-05-21T14:13:27.431Z,27.33
2018-05-21T14:14:27.207Z,27.62
2018-05-21T14:15:27.193Z,27.46
2018-05-21T14:16:27.077Z,27.34
2018-05-21T14:17:27.102Z,27.40
2018-05-21T14:18:26.938Z,27.01
2018-05-21T14:19:27.972Z,27.16
2018-05-21T14:20:26.910Z,27.23
2018-05-21T14:21:26.826Z,27.33
2018-05-21T14:22:26.635Z,27.43
2018-05-21T14:23:26.637Z,27.31
2018-05-21T14:24:26.520Z,27.33
2018-05-21T14:25:26.465Z,27.35
2018-05-21T14:26:26.331Z,27.25
2018-05-21T14:27:26.278Z,27.15
2018-05-21T14:28:26.194Z,27.11
2018-05-21T14:29:26.206Z,27.03
2018-05-21T14:30:26.054Z,27.05
2018-05-21T14:31:25.986Z,26.93
2018-05-21T14:32:25.913Z,26.87
2018-05-21T14:33:25.846Z,27.05
2018-05-21T14:34:25.782Z,27.08
2018-05-21T14:35:25.693Z,27.13
2018-05-21T14:36:25.614Z,27.01
2018-05-21T14:39:07.775Z,27.09
2018-05-21T14:40:07.690Z,27.18
2018-05-21T14:41:07.590Z,27.12
2018-05-21T14:43:49.750Z,26.97
2018-05-21T14:44:49.706Z,26.94
2018-05-21T14:45:49.603Z,26.98
2018-05-21T14:46:49.539Z,26.97
2018-05-21T14:47:49.452Z,26.98
2018-05-21T14:48:49.390Z,27.08
2018-05-21T14:49:49.330Z,27.15
2018-05-21T14:50:49.246Z,27.09
2018-05-21T14:51:49.160Z,27.02
2018-05-21T14:54:31.265Z,26.83
2018-05-21T14:55:31.183Z,26.76
2018-05-21T14:56:31.140Z,26.87
2018-05-21T14:57:31.031Z,26.97
2018-05-21T14:58:30.962Z,26.96
2018-05-21T15:01:13.243Z,26.87
2018-05-21T15:02:14.198Z,26.86
2018-05-21T15:03:13.121Z,26.86
2018-05-21T15:05:55.281Z,26.79
2018-05-21T15:06:55.193Z,26.72
2018-05-21T15:07:55.119Z,26.64
2018-05-21T15:10:37.251Z,26.56
2018-05-21T15:11:37.205Z,26.60
2018-05-21T15:12:37.101Z,26.57
2018-05-21T15:13:37.038Z,26.56
2018-05-21T15:14:36.960Z,26.54
2018-05-21T15:15:36.892Z,26.68
2018-05-21T15:16:36.834Z,26.66
2018-05-21T15:17:36.767Z,26.64
2018-05-21T15:18:36.674Z,26.69
2018-05-21T15:21:18.770Z,26.56
2018-05-21T15:22:19.754Z,26.66
2018-05-21T15:23:18.610Z,26.65
2018-05-21T15:24:18.561Z,26.76